Time;durP1;ratioP1;P1;durP2;ratioP2;P2;SDS_P1;SDS_P2;PMS_P1;PMS_P2;Temp;Humidity;BMP_temperature;BMP_pressure;BME280_temperature;BME280_humidity;BME280_pressure;Samples;Min_cycle;Max_cycle;Signal;HPM_P1;HPM_P2
2022/06/10 00:00:58;;;;;;;11.10;7.13;;;512.80;2380.80;;;;;;5093822;28;20035;-76
2022/06/10 00:03:25;;;;;;;8.27;6.93;;;512.10;2380.80;;;;;;5093653;28;20111;-76
2022/06/10 00:05:54;;;;;;;7.93;6.93;;;512.40;2380.80;;;;;;5092282;28;20070;-76
2022/06/10 00:08:23;;;;;;;16.13;7.40;;;512.40;2380.80;;;;;;5091951;28;20027;-77
2022/06/10 00:10:50;;;;;;;10.10;6.90;;;512.50;2380.80;;;;;;5093495;28;20024;-76
2022/06/10 00:13:20;;;;;;;12.27;7.70;;;512.30;2380.80;;;;;;5089035;28;20028;-77
2022/06/10 00:15:47;;;;;;;10.70;7.50;;;512.30;2380.80;;;;;;5093501;28;20157;-76
2022/06/10 00:18:13;;;;;;;11.35;8.13;;;512.30;2380.80;;;;;;5093173;28;20020;-76
2022/06/10 00:20:39;;;;;;;10.77;7.93;;;512.20;2380.80;;;;;;5093206;28;20028;-76
2022/06/10 00:23:05;;;;;;;10.80;7.82;;;512.10;2380.80;;;;;;5091940;28;20067;-76
2022/06/10 00:25:31;;;;;;;11.38;6.95;;;512.20;2380.80;;;;;;5091739;28;20031;-77
2022/06/10 00:27:57;;;;;;;9.65;7.63;;;512.30;2380.80;;;;;;5093406;28;20018;-77
2022/06/10 00:30:26;;;;;;;11.40;7.43;;;512.20;2380.80;;;;;;5091136;28;20047;-77
2022/06/10 00:32:52;;;;;;;11.98;8.63;;;512.10;2380.80;;;;;;5093073;28;20022;-77
2022/06/10 00:35:18;;;;;;;10.95;7.82;;;512.00;2380.80;;;;;;5092787;28;20024;-76
2022/06/10 00:37:43;;;;;;;10.77;7.90;;;512.10;2380.80;;;;;;5091248;28;20081;-77
2022/06/10 00:40:16;;;;;;;12.55;8.30;;;487.30;2380.80;;;;;;5092579;28;20400;-77
2022/06/10 00:42:41;;;;;;;10.63;7.68;;;487.30;2380.80;;;;;;5090905;28;20522;-77
2022/06/10 00:45:47;;;;;;;10.90;8.32;;;512.00;2380.80;;;;;;5092878;28;20087;-76
2022/06/10 00:48:38;;;;;;;16.95;8.30;;;512.10;2380.80;;;;;;5092375;28;20008;-77
2022/06/10 00:51:19;;;;;;;10.30;8.50;;;512.20;2380.80;;;;;;5089878;28;20086;-77
2022/06/10 00:53:49;;;;;;;10.13;8.32;;;512.20;2380.80;;;;;;5094790;28;20044;-77
2022/06/10 00:56:21;;;;;;;9.00;7.80;;;512.40;2380.80;;;;;;5096128;28;20485;-76
2022/06/10 00:59:01;;;;;;;9.48;8.02;;;512.20;2380.80;;;;;;5094518;28;20016;-76
2022/06/10 01:01:28;;;;;;;9.77;7.60;;;512.20;2380.80;;;;;;5091379;28;20059;-77
2022/06/10 01:03:54;;;;;;;10.80;7.28;;;512.20;2380.80;;;;;;5092534;28;20024;-76
2022/06/10 01:06:21;;;;;;;10.15;8.45;;;512.40;2380.80;;;;;;5092272;28;20023;-77
2022/06/10 01:08:49;;;;;;;9.07;7.97;;;512.30;2380.80;;;;;;5092253;28;20047;-77
2022/06/10 01:11:18;;;;;;;8.82;7.85;;;512.60;2380.80;;;;;;5090729;28;20397;-76
2022/06/10 01:14:02;;;;;;;11.30;8.85;;;512.60;2380.80;;;;;;5092436;28;20023;-76
2022/06/10 01:16:34;;;;;;;11.48;7.88;;;512.40;2380.80;;;;;;5091157;28;20035;-77
2022/06/10 01:19:33;;;;;;;12.93;8.13;;;512.40;2380.80;;;;;;5089699;28;20091;-76
2022/06/10 01:22:23;;;;;;;8.55;7.43;;;512.50;2380.80;;;;;;5089612;28;20024;-78
2022/06/10 01:25:10;;;;;;;11.73;7.57;;;512.40;2380.80;;;;;;5091148;28;20020;-76
2022/06/10 01:27:56;;;;;;;8.90;7.50;;;512.40;2380.80;;;;;;5092053;28;20095;-76
2022/06/10 01:30:59;;;;;;;9.68;7.85;;;512.30;2380.80;;;;;;5088605;28;20063;-77
2022/06/10 01:33:37;;;;;;;10.90;9.18;;;512.30;2380.80;;;;;;5090269;28;20031;-77
2022/06/10 01:36:18;;;;;;;12.80;8.25;;;512.20;2380.80;;;;;;5089910;28;20065;-77
2022/06/10 01:38:43;;;;;;;9.50;8.40;;;512.20;2380.80;;;;;;5090152;28;20443;-77
2022/06/10 01:41:37;;;;;;;11.63;8.50;;;512.20;2380.80;;;;;;5091582;28;20073;-77
2022/06/10 01:44:20;;;;;;;12.98;8.90;;;512.40;2380.80;;;;;;5089655;28;20020;-77
2022/06/10 01:47:20;;;;;;;13.43;8.88;;;512.50;2380.80;;;;;;5090327;28;20445;-77
2022/06/10 01:49:56;;;;;;;12.43;8.55;;;512.50;2380.80;;;;;;5009472;28;20034;-76
2022/06/10 01:52:42;;;;;;;11.25;8.13;;;512.60;2380.80;;;;;;5007538;28;20443;-77
2022/06/10 01:55:19;;;;;;;14.00;9.00;;;512.70;2380.80;;;;;;5009533;28;20022;-76
2022/06/10 01:57:57;;;;;;;17.13;8.27;;;512.70;2380.80;;;;;;5010014;28;20368;-77
2022/06/10 02:00:29;;;;;;;18.23;8.73;;;512.70;2380.80;;;;;;5009807;28;20062;-77
2022/06/10 02:03:04;;;;;;;10.40;8.43;;;512.70;2380.80;;;;;;5011228;28;20042;-77
2022/06/10 02:05:35;;;;;;;10.10;8.48;;;512.70;2380.80;;;;;;4997381;28;20046;-77
2022/06/10 02:08:27;;;;;;;14.48;8.65;;;512.70;2380.80;;;;;;5011101;28;20022;-77
2022/06/10 02:11:20;;;;;;;13.63;8.80;;;512.90;2380.80;;;;;;4996185;28;20084;-77
2022/06/10 02:13:57;;;;;;;12.80;8.38;;;512.90;2380.80;;;;;;5013031;28;20443;-76
2022/06/10 02:16:33;;;;;;;11.15;8.57;;;512.80;2380.80;;;;;;5013712;28;20034;-77
2022/06/10 02:19:10;;;;;;;13.27;8.45;;;512.70;2380.80;;;;;;5013060;28;20026;-77
2022/06/10 02:21:52;;;;;;;19.55;8.48;;;512.70;2380.80;;;;;;5013719;28;20042;-76
2022/06/10 02:24:26;;;;;;;11.02;9.13;;;512.80;2380.80;;;;;;5013331;28;20032;-77
2022/06/10 02:26:57;;;;;;;13.70;8.65;;;512.80;2380.80;;;;;;5069435;28;20365;-76
2022/06/10 02:29:31;;;;;;;12.70;9.13;;;512.80;2380.80;;;;;;5091979;28;20024;-76
2022/06/10 02:31:59;;;;;;;11.93;8.48;;;512.80;2380.80;;;;;;5095206;28;20038;-76
2022/06/10 02:34:29;;;;;;;17.92;8.70;;;512.80;2380.80;;;;;;5095171;28;20012;-76
2022/06/10 02:37:08;;;;;;;10.98;8.52;;;512.90;2380.80;;;;;;5094054;28;20495;-77
2022/06/10 02:39:46;;;;;;;11.27;8.93;;;512.90;2380.80;;;;;;5094021;28;20044;-76
2022/06/10 02:42:20;;;;;;;10.90;8.75;;;512.80;2380.80;;;;;;5094019;28;20065;-77
2022/06/10 02:45:18;;;;;;;11.02;8.68;;;512.70;2380.80;;;;;;5093312;28;20024;-77
2022/06/10 02:47:58;;;;;;;17.25;9.73;;;512.70;2380.80;;;;;;5052670;28;20037;-77
2022/06/10 02:50:24;;;;;;;11.13;8.80;;;512.70;2380.80;;;;;;5049922;28;20036;-77
2022/06/10 02:52:51;;;;;;;15.38;10.35;;;512.60;2380.80;;;;;;5052631;28;20083;-77
2022/06/10 02:55:20;;;;;;;16.58;9.70;;;512.60;2380.80;;;;;;5052387;28;20222;-77
2022/06/10 03:03:51;;;;;;;19.40;10.63;;;512.70;2380.80;;;;;;5051295;28;20024;-77
2022/06/10 03:06:41;;;;;;;13.20;10.13;;;512.70;2380.80;;;;;;5051394;28;20045;-78
2022/06/10 03:09:10;;;;;;;17.27;9.98;;;512.70;2380.80;;;;;;5033261;28;20021;-77
2022/06/10 03:11:51;;;;;;;13.98;10.57;;;512.70;2380.80;;;;;;5052469;28;20060;-77
2022/06/10 03:14:47;;;;;;;15.20;9.88;;;512.70;2380.80;;;;;;5050439;28;20025;-77
2022/06/10 03:17:32;;;;;;;16.37;10.57;;;512.80;2380.80;;;;;;5050880;28;20021;-77
2022/06/10 03:20:11;;;;;;;15.75;10.95;;;512.80;2380.80;;;;;;5051928;28;20098;-77
2022/06/10 03:22:39;;;;;;;15.45;10.80;;;512.80;2380.80;;;;;;5052224;28;20029;-76
2022/06/10 03:25:10;;;;;;;13.73;10.18;;;512.90;2380.80;;;;;;5079535;28;20039;-77
2022/06/10 03:28:14;;;;;;;13.13;9.45;;;512.90;2380.80;;;;;;5094394;28;20786;-77
2022/06/10 03:31:22;;;;;;;14.70;10.02;;;512.80;2380.80;;;;;;5092816;28;20123;-77
2022/06/10 03:34:12;;;;;;;13.15;9.23;;;512.90;2380.80;;;;;;5092010;28;20013;-77
2022/06/10 03:36:39;;;;;;;13.70;10.05;;;512.90;2380.80;;;;;;5093415;28;20568;-77
2022/06/10 03:39:06;;;;;;;17.83;10.25;;;512.90;2380.80;;;;;;5093843;28;20020;-76
2022/06/10 03:41:37;;;;;;;16.88;9.75;;;537.60;2406.40;;;;;;5094268;28;20028;-77
2022/06/10 03:44:11;;;;;;;17.40;11.32;;;537.60;2406.40;;;;;;5089361;28;20036;-76
2022/06/10 03:46:38;;;;;;;20.17;10.98;;;537.80;2406.40;;;;;;5094057;28;20062;-77
2022/06/10 03:49:10;;;;;;;14.38;10.35;;;537.70;2406.40;;;;;;5086862;28;20060;-78
2022/06/10 03:51:36;;;;;;;12.98;10.45;;;537.90;2406.40;;;;;;5092583;28;20043;-76
2022/06/10 03:54:03;;;;;;;16.17;11.07;;;537.90;2406.40;;;;;;5093921;28;20438;-77
2022/06/10 03:56:31;;;;;;;13.13;9.90;;;537.90;2406.40;;;;;;5093777;28;20016;-77
2022/06/10 03:58:57;;;;;;;14.75;10.32;;;537.90;2406.40;;;;;;5093719;28;20501;-77
2022/06/10 04:01:23;;;;;;;17.35;12.13;;;537.90;2406.40;;;;;;5093494;28;20028;-77
2022/06/10 04:03:49;;;;;;;17.35;11.90;;;537.90;2406.40;;;;;;5093744;28;20026;-76
2022/06/10 04:06:16;;;;;;;18.58;12.80;;;538.00;2406.40;;;;;;5091583;28;20028;-77
2022/06/10 04:08:42;;;;;;;18.20;12.25;;;538.00;2406.40;;;;;;5093594;28;20017;-77
2022/06/10 04:11:08;;;;;;;15.23;11.25;;;538.00;2406.40;;;;;;5093107;28;20081;-76
2022/06/10 04:13:34;;;;;;;12.63;11.05;;;538.00;2406.40;;;;;;5092333;28;20020;-75
2022/06/10 04:16:00;;;;;;;15.55;11.80;;;538.00;2406.40;;;;;;5093128;28;20385;-75
2022/06/10 04:18:25;;;;;;;15.20;12.25;;;538.10;2406.40;;;;;;5093204;28;20020;-76
2022/06/10 04:20:52;;;;;;;13.98;11.15;;;538.00;2406.40;;;;;;5093161;28;20020;-76
2022/06/10 04:23:17;;;;;;;16.15;12.57;;;538.00;2406.40;;;;;;5094819;28;20039;-76
2022/06/10 04:25:46;;;;;;;15.25;11.75;;;538.10;2406.40;;;;;;5100731;28;20024;-76
2022/06/10 04:28:13;;;;;;;18.55;12.20;;;538.10;2406.40;;;;;;5097855;28;20012;-77
2022/06/10 04:30:43;;;;;;;16.17;12.93;;;538.20;2406.40;;;;;;5093212;28;20058;-76
2022/06/10 04:33:09;;;;;;;17.05;13.13;;;538.10;2406.40;;;;;;5090489;28;20024;-77
2022/06/10 04:35:36;;;;;;;24.13;14.50;;;538.10;2406.40;;;;;;5093259;28;20371;-77
2022/06/10 04:38:02;;;;;;;18.25;13.60;;;538.10;2406.40;;;;;;5092860;28;20031;-77
2022/06/10 04:40:30;;;;;;;18.23;13.73;;;538.10;2406.40;;;;;;5091322;28;20043;-77
2022/06/10 04:42:58;;;;;;;16.60;12.80;;;538.10;2406.40;;;;;;5092982;28;20024;-76
2022/06/10 04:45:32;;;;;;;17.25;13.48;;;538.10;2406.40;;;;;;5091340;28;20020;-76
2022/06/10 04:47:58;;;;;;;18.52;14.93;;;538.10;2406.40;;;;;;5091764;28;20027;-76
2022/06/10 04:50:26;;;;;;;19.45;14.57;;;538.00;2406.40;;;;;;5092370;28;20026;-78
2022/06/10 04:52:52;;;;;;;16.63;14.55;;;538.00;2406.40;;;;;;5092844;28;20056;-76
2022/06/10 04:55:19;;;;;;;17.75;14.48;;;538.00;2406.40;;;;;;5090975;28;20046;-77
2022/06/10 04:57:45;;;;;;;18.75;15.32;;;538.10;2406.40;;;;;;5092450;28;20494;-76
2022/06/10 05:00:20;;;;;;;18.50;15.02;;;538.10;2406.40;;;;;;5092723;28;20024;-79
2022/06/10 05:02:45;;;;;;;22.70;16.50;;;538.20;2406.40;;;;;;5091107;28;20023;-77
2022/06/10 05:05:11;;;;;;;22.52;15.75;;;538.40;2406.40;;;;;;5092470;28;20024;-76
2022/06/10 05:07:37;;;;;;;20.33;15.63;;;538.40;2406.40;;;;;;5090993;28;20035;-77
2022/06/10 05:10:04;;;;;;;22.88;17.55;;;538.50;2406.40;;;;;;5091880;28;20031;-76
2022/06/10 05:12:30;;;;;;;22.25;16.95;;;538.50;2406.40;;;;;;5091538;28;20036;-79
2022/06/10 05:14:56;;;;;;;25.02;16.02;;;538.50;2406.40;;;;;;5090564;28;20030;-76
2022/06/10 05:17:21;;;;;;;22.75;16.20;;;563.30;2432.00;;;;;;5091955;28;20040;-79
2022/06/10 05:19:47;;;;;;;25.95;16.30;;;563.30;2432.00;;;;;;5091733;28;20069;-75
2022/06/10 05:22:16;;;;;;;28.65;15.90;;;563.40;2432.00;;;;;;5092116;28;20065;-78
2022/06/10 05:24:42;;;;;;;31.33;15.63;;;563.50;2432.00;;;;;;5091921;28;20470;-75
2022/06/10 05:27:09;;;;;;;27.27;14.48;;;563.60;2432.00;;;;;;5098165;28;20059;-76
2022/06/10 05:29:35;;;;;;;23.25;14.40;;;563.60;2432.00;;;;;;5105829;28;20030;-77
2022/06/10 05:32:01;;;;;;;22.85;15.63;;;563.30;2432.00;;;;;;5111442;28;20031;-76
2022/06/10 05:34:44;;;;;;;22.55;14.85;;;563.80;2432.00;;;;;;5111377;28;20392;-77
2022/06/10 05:37:17;;;;;;;25.67;15.02;;;563.90;2432.00;;;;;;5110879;28;20020;-75
2022/06/10 05:39:43;;;;;;;22.38;14.25;;;564.00;2432.00;;;;;;5097980;28;20036;-75
2022/06/10 05:42:09;;;;;;;22.00;12.98;;;564.10;2432.00;;;;;;5091533;28;20034;-75
2022/06/10 05:44:46;;;;;;;31.30;13.52;;;588.90;2432.00;;;;;;5091732;28;20028;-78
2022/06/10 05:47:15;;;;;;;18.35;12.52;;;589.00;2432.00;;;;;;5073874;28;20027;-77
2022/06/10 05:49:44;;;;;;;18.50;13.55;;;589.10;2432.00;;;;;;5091842;28;20030;-79
2022/06/10 05:52:10;;;;;;;17.10;12.48;;;589.10;2432.00;;;;;;5105343;28;20063;-77
2022/06/10 05:54:39;;;;;;;18.77;13.07;;;589.10;2432.00;;;;;;5091894;28;20020;-74
2022/06/10 05:57:05;;;;;;;22.05;14.13;;;589.10;2432.00;;;;;;5091203;28;20055;-76
2022/06/10 05:59:33;;;;;;;20.70;13.13;;;589.00;2432.00;;;;;;5091569;28;20008;-75
2022/06/10 06:02:04;;;;;;;22.38;14.13;;;589.00;2432.00;;;;;;5091717;28;20020;-75
2022/06/10 06:04:30;;;;;;;22.40;14.13;;;588.80;2432.00;;;;;;5089304;28;20040;-74
2022/06/10 06:06:56;;;;;;;19.52;14.85;;;564.10;2432.00;;;;;;5096115;28;20012;-74
2022/06/10 06:09:22;;;;;;;17.80;15.00;;;564.10;2432.00;;;;;;5112059;28;20031;-75
2022/06/10 06:11:50;;;;;;;18.05;13.50;;;564.10;2432.00;;;;;;5109540;28;20481;-73
2022/06/10 06:14:17;;;;;;;21.88;14.50;;;564.10;2432.00;;;;;;5100659;28;20054;-76
2022/06/10 06:16:47;;;;;;;19.27;12.65;;;589.20;2432.00;;;;;;5111465;28;20030;-74
2022/06/10 06:19:13;;;;;;;18.90;13.65;;;564.10;2432.00;;;;;;5091942;28;20138;-75
2022/06/10 06:21:38;;;;;;;30.27;13.55;;;588.80;2432.00;;;;;;5091912;28;20065;-75
2022/06/10 06:24:04;;;;;;;24.23;13.73;;;589.00;2432.00;;;;;;5096367;28;20020;-73
2022/06/10 06:26:30;;;;;;;18.85;12.70;;;589.10;2432.00;;;;;;5091352;28;20028;-74
2022/06/10 06:28:56;;;;;;;19.30;12.75;;;589.30;2432.00;;;;;;5091958;28;20028;-75
2022/06/10 06:31:22;;;;;;;17.73;11.63;;;589.50;2432.00;;;;;;5105716;28;20039;-75
2022/06/10 06:33:48;;;;;;;15.80;12.10;;;589.70;2432.00;;;;;;5091784;28;20078;-79
2022/06/10 06:36:20;;;;;;;19.67;11.63;;;589.70;2432.00;;;;;;5093957;28;20024;-74
2022/06/10 06:38:46;;;;;;;13.82;10.25;;;614.40;2432.00;;;;;;5102723;28;20028;-75
2022/06/10 06:41:12;;;;;;;12.50;9.85;;;614.50;2432.00;;;;;;5105835;28;20040;-75
2022/06/10 06:43:38;;;;;;;15.50;10.25;;;614.60;2432.00;;;;;;5099248;28;20027;-75
2022/06/10 06:46:04;;;;;;;17.75;9.50;;;614.60;2432.00;;;;;;5104647;28;20023;-74
2022/06/10 06:48:30;;;;;;;16.67;9.82;;;614.60;2432.00;;;;;;5090585;28;20036;-74
2022/06/10 06:50:55;;;;;;;19.30;10.32;;;614.70;2432.00;;;;;;5094074;28;20036;-75
2022/06/10 06:53:21;;;;;;;19.35;9.77;;;614.80;2432.00;;;;;;5094674;28;20545;-75
2022/06/10 06:55:47;;;;;;;12.48;9.15;;;614.90;2432.00;;;;;;5094874;28;20484;-78
2022/06/10 06:58:15;;;;;;;16.70;8.95;;;615.00;2432.00;;;;;;5097235;28;20028;-74
2022/06/10 07:00:41;;;;;;;14.27;8.80;;;615.20;2432.00;;;;;;5105365;28;20020;-75
2022/06/10 07:03:07;;;;;;;16.45;8.38;;;615.30;2432.00;;;;;;5094881;28;20103;-75
2022/06/10 07:05:35;;;;;;;15.90;8.73;;;615.30;2432.00;;;;;;5094548;28;20020;-75
2022/06/10 07:08:01;;;;;;;12.35;9.35;;;640.00;2432.00;;;;;;5106843;28;20015;-74
2022/06/10 07:10:28;;;;;;;11.52;9.80;;;640.10;2432.00;;;;;;5113694;28;20381;-75
2022/06/10 07:12:54;;;;;;;19.00;8.23;;;640.20;2432.00;;;;;;5115122;28;20446;-75
2022/06/10 07:15:21;;;;;;;11.98;9.25;;;640.30;2432.00;;;;;;5114933;28;20020;-74
2022/06/10 07:17:47;;;;;;;12.45;8.20;;;640.50;2432.00;;;;;;5115582;28;20451;-75
2022/06/10 07:20:26;;;;;;;11.10;9.07;;;640.50;2432.00;;;;;;5114590;28;20034;-75
2022/06/10 07:22:52;;;;;;;10.77;8.98;;;640.50;2432.00;;;;;;5094555;28;20028;-74
2022/06/10 07:25:19;;;;;;;13.45;8.52;;;640.60;2432.00;;;;;;5109014;28;20027;-75
2022/06/10 07:27:44;;;;;;;11.88;8.38;;;640.70;2432.00;;;;;;5114753;28;20039;-75
2022/06/10 07:30:14;;;;;;;10.15;8.43;;;640.90;2432.00;;;;;;5102652;28;20064;-76
2022/06/10 07:32:42;;;;;;;11.80;8.25;;;640.90;2432.00;;;;;;5113510;28;20023;-80
2022/06/10 07:35:08;;;;;;;10.40;8.50;;;665.60;2432.00;;;;;;5115013;28;20019;-76
2022/06/10 07:37:34;;;;;;;10.57;8.70;;;665.60;2432.00;;;;;;5114408;28;20011;-75
2022/06/10 07:40:00;;;;;;;19.08;7.68;;;665.70;2432.00;;;;;;5114448;28;20047;-75
2022/06/10 07:42:25;;;;;;;13.52;8.68;;;665.70;2432.00;;;;;;5114663;28;20469;-75
2022/06/10 07:44:51;;;;;;;10.23;6.45;;;665.90;2432.00;;;;;;5114676;28;20481;-76
2022/06/10 07:47:18;;;;;;;11.48;6.72;;;666.00;2432.00;;;;;;5101522;28;20496;-76
2022/06/10 07:49:43;;;;;;;10.07;6.10;;;666.10;2432.00;;;;;;5096282;28;20070;-75
2022/06/10 07:52:10;;;;;;;11.85;7.00;;;666.20;2432.00;;;;;;5114813;28;20066;-75
2022/06/10 07:54:36;;;;;;;10.45;7.80;;;666.40;2432.00;;;;;;5113954;28;20072;-75
2022/06/10 07:57:03;;;;;;;12.85;8.27;;;666.50;2432.00;;;;;;5094877;28;20049;-76
2022/06/10 07:59:30;;;;;;;14.50;5.70;;;666.50;2432.00;;;;;;5098358;28;20012;-76
2022/06/10 08:01:55;;;;;;;22.05;6.72;;;691.20;2406.40;;;;;;5095634;28;20039;-75
2022/06/10 08:04:21;;;;;;;11.43;7.43;;;691.30;2432.00;;;;;;5108137;28;20465;-75
2022/06/10 08:06:48;;;;;;;10.73;5.40;;;691.40;2432.00;;;;;;5114013;28;20031;-83
2022/06/10 08:09:15;;;;;;;6.70;4.55;;;691.40;2227.20;;;;;;5114353;28;20020;-75
2022/06/10 08:11:41;;;;;;;7.35;5.07;;;691.50;2099.20;;;;;;5109636;28;20060;-80
2022/06/10 08:14:07;;;;;;;6.32;5.20;;;691.50;2150.40;;;;;;5104366;28;20539;-79
2022/06/10 08:16:35;;;;;;;12.13;5.47;;;691.60;2124.80;;;;;;5114110;28;20022;-75
2022/06/10 08:19:02;;;;;;;8.98;4.63;;;691.80;2022.40;;;;;;5105544;28;20066;-75
2022/06/10 08:24:12;;;;;;;10.90;4.10;;;691.80;1996.80;;;;;;5090236;28;20090;-76
2022/06/10 08:26:38;;;;;;;5.68;3.70;;;691.90;1817.60;;;;;;5111688;28;20028;-75
2022/06/10 08:29:04;;;;;;;7.35;4.00;;;691.90;1817.60;;;;;;5100127;28;20035;-75
2022/06/10 08:31:31;;;;;;;9.27;4.00;;;692.00;1868.80;;;;;;5113724;28;20043;-75
2022/06/10 08:33:57;;;;;;;8.00;3.15;;;716.80;1843.20;;;;;;5111965;28;20081;-79
2022/06/10 08:36:23;;;;;;;8.65;4.72;;;716.80;1843.20;;;;;;5113661;27;20020;-76
2022/06/10 08:38:48;;;;;;;10.23;4.57;;;716.80;1868.80;;;;;;5095157;28;20403;-77
2022/06/10 08:41:24;;;;;;;7.07;4.35;;;716.90;1843.20;;;;;;5093511;28;20156;-76
2022/06/10 08:43:50;;;;;;;;;;;716.90;1843.20;;;;;;5092326;28;20059;-78
2022/06/10 08:46:21;;;;;;;8.23;4.03;;;716.90;1792.00;;;;;;5093003;28;19962;-77
2022/06/10 08:49:25;;;;;;;9.05;4.68;;;716.90;1843.20;;;;;;5102039;28;20024;-78
2022/06/10 08:52:06;;;;;;;9.75;4.45;;;716.90;1868.80;;;;;;5030726;28;20123;-78
2022/06/10 08:54:43;;;;;;;7.75;4.57;;;716.90;1868.80;;;;;;5030825;28;20025;-77
2022/06/10 08:57:46;;;;;;;14.90;4.45;;;717.00;1817.60;;;;;;5006512;28;20037;-77
2022/06/10 09:00:20;;;;;;;4.40;3.55;;;717.10;1792.00;;;;;;5025060;28;20503;-77
2022/06/10 09:03:00;;;;;;;6.47;4.00;;;717.30;1766.40;;;;;;4994640;28;20113;-77
2022/06/10 09:05:38;;;;;;;6.20;3.95;;;717.40;1766.40;;;;;;5016141;28;20025;-77
2022/06/10 09:08:13;;;;;;;10.25;4.47;;;717.60;1740.80;;;;;;5030587;28;20076;-78
2022/06/10 09:10:49;;;;;;;11.93;4.57;;;717.70;1792.00;;;;;;5014224;28;20506;-79
2022/06/10 09:13:25;;;;;;;5.95;2.63;;;742.80;1740.80;;;;;;5012721;28;20072;-79
2022/06/10 09:16:05;;;;;;;8.10;3.25;;;742.50;1612.80;;;;;;5006952;28;20381;-79
2022/06/10 09:19:04;;;;;;;8.60;2.92;;;742.50;1638.40;;;;;;5011116;28;20030;-79
2022/06/10 09:21:48;;;;;;;8.65;3.10;;;742.60;1587.20;;;;;;5005636;28;20038;-79
2022/06/10 09:24:29;;;;;;;3.40;2.38;;;742.60;1612.80;;;;;;5013819;28;20026;-80
2022/06/10 09:27:27;;;;;;;6.25;2.90;;;742.80;1587.20;;;;;;5013868;28;20025;-79
2022/06/10 09:29:53;;;;;;;8.02;2.90;;;742.90;1536.00;;;;;;5070167;28;20040;-78
2022/06/10 09:32:39;;;;;;;9.23;2.33;;;742.90;1484.80;;;;;;5036116;28;20044;-77
2022/06/10 09:35:10;;;;;;;9.32;3.15;;;742.90;1484.80;;;;;;5040418;28;20367;-76
2022/06/10 09:37:58;;;;;;;3.63;2.50;;;743.10;1459.20;;;;;;5049717;28;20592;-75
2022/06/10 09:40:36;;;;;;;13.40;2.67;;;743.10;1408.00;;;;;;5049133;28;20048;-75
2022/06/10 09:43:30;;;;;;;10.07;3.03;;;743.20;1408.00;;;;;;5049163;28;20509;-77
2022/06/10 09:46:14;;;;;;;5.20;1.88;;;768.00;1408.00;;;;;;5053246;28;20028;-77
2022/06/10 09:48:58;;;;;;;6.45;2.22;;;768.10;1382.40;;;;;;5045190;28;20063;-77
2022/06/10 09:51:42;;;;;;;6.65;2.20;;;768.20;1382.40;;;;;;5069373;28;20044;-77
2022/06/10 09:54:14;;;;;;;14.57;2.70;;;768.20;1382.40;;;;;;5069564;28;20051;-82
2022/06/10 09:56:58;;;;;;;5.47;2.70;;;768.50;1382.40;;;;;;5053077;28;20115;-77
2022/06/10 09:59:27;;;;;;;7.38;2.97;;;768.60;1356.80;;;;;;5058104;28;20064;-77
2022/06/10 10:02:10;;;;;;;6.88;2.55;;;768.70;1356.80;;;;;;5067895;28;20048;-80
2022/06/10 10:04:58;;;;;;;4.72;2.60;;;768.80;1356.80;;;;;;5063046;28;20036;-78
2022/06/10 10:07:32;;;;;;;4.45;2.45;;;768.80;1356.80;;;;;;5112570;28;20470;-78
2022/06/10 10:10:33;;;;;;;4.85;2.70;;;793.70;1408.00;;;;;;5111929;28;20024;-77
2022/06/10 10:14:00;;;;;;;5.65;2.72;;;793.80;1356.80;;;;;;5110716;28;20035;-78
2022/06/10 10:16:35;;;;;;;5.30;2.65;;;793.90;1382.40;;;;;;4990464;28;20479;-79
2022/06/10 10:19:37;;;;;;;12.30;2.50;;;794.00;1356.80;;;;;;4990061;28;20046;-77
2022/06/10 10:22:16;;;;;;;5.82;2.20;;;794.20;1356.80;;;;;;4974241;28;20464;-78
2022/06/10 10:24:44;;;;;;;4.78;2.67;;;794.20;1382.40;;;;;;4993356;28;20023;-78
2022/06/10 10:27:34;;;;;;;5.85;2.42;;;794.40;1356.80;;;;;;4994087;28;20137;-79
2022/06/10 10:30:18;;;;;;;5.05;2.25;;;794.50;1356.80;;;;;;4993757;28;20034;-78
2022/06/10 10:32:53;;;;;;;6.60;2.58;;;819.20;1331.20;;;;;;4993470;28;20030;-76
2022/06/10 10:35:29;;;;;;;10.90;2.72;;;819.40;1331.20;;;;;;4990743;28;20034;-78
2022/06/10 10:38:00;;;;;;;5.55;2.40;;;819.20;1305.60;;;;;;4993312;28;20023;-77
2022/06/10 10:40:37;;;;;;;4.97;2.50;;;819.40;1305.60;;;;;;4991967;28;20042;-77
2022/06/10 10:43:09;;;;;;;7.72;2.38;;;819.50;1280.00;;;;;;4993379;28;20357;-77
2022/06/10 10:45:37;;;;;;;7.82;2.47;;;819.30;1331.20;;;;;;4977290;28;20033;-77
2022/06/10 10:48:30;;;;;;;4.78;2.58;;;819.30;1305.60;;;;;;5055313;28;20087;-78
2022/06/10 10:51:11;;;;;;;4.57;2.30;;;819.60;1305.60;;;;;;5060376;28;20037;-78
2022/06/10 10:53:48;;;;;;;10.13;2.80;;;819.70;1305.60;;;;;;5067091;28;20536;-77
2022/06/10 10:56:16;;;;;;;4.50;2.42;;;819.90;1331.20;;;;;;5095090;28;20020;-78
2022/06/10 10:58:52;;;;;;;4.75;2.78;;;819.80;1280.00;;;;;;5091869;28;20040;-77
2022/06/10 11:01:44;;;;;;;14.02;2.40;;;819.70;1280.00;;;;;;5106575;28;20027;-79
2022/06/10 11:04:19;;;;;;;8.27;2.53;;;820.00;1280.00;;;;;;5107872;28;20016;-78
2022/06/10 11:06:46;;;;;;;7.28;2.53;;;820.10;1254.40;;;;;;5109370;28;20385;-77
2022/06/10 11:09:14;;;;;;;4.85;2.50;;;820.10;1254.40;;;;;;5099350;28;20020;-77
2022/06/10 11:11:41;;;;;;;3.75;2.58;;;844.80;1280.00;;;;;;5113879;28;20035;-77
2022/06/10 11:14:38;;;;;;;5.30;2.22;;;819.60;1254.40;;;;;;5100549;28;20016;-77
2022/06/10 11:17:07;;;;;;;3.22;1.90;;;819.60;1280.00;;;;;;5112992;28;20031;-78
2022/06/10 11:19:32;;;;;;;4.35;2.08;;;819.70;1228.80;;;;;;5115171;28;20028;-77
2022/06/10 11:22:01;;;;;;;5.05;2.10;;;819.50;1228.80;;;;;;5115185;28;20027;-77
2022/06/10 11:24:37;;;;;;;4.00;2.28;;;794.40;1254.40;;;;;;5109666;28;20066;-76
2022/06/10 11:27:20;;;;;;;6.38;2.70;;;819.30;1280.00;;;;;;5107718;28;20541;-77
2022/06/10 11:29:57;;;;;;;6.90;2.30;;;819.40;1254.40;;;;;;5121505;28;20016;-78
2022/06/10 11:32:26;;;;;;;6.63;2.17;;;819.70;1305.60;;;;;;5126178;28;20035;-78
2022/06/10 11:35:02;;;;;;;6.13;2.20;;;819.90;1228.80;;;;;;5111238;28;20024;-77
2022/06/10 11:37:36;;;;;;;;;;;819.90;1228.80;;;;;;5108495;28;20057;-79
2022/06/10 11:40:28;;;;;;;4.95;2.40;;;819.90;1254.40;;;;;;5114691;28;19962;-79
2022/06/10 11:43:01;;;;;;;5.70;2.28;;;820.00;1254.40;;;;;;5031979;28;20036;-77
2022/06/10 11:45:58;;;;;;;4.22;2.15;;;820.00;1228.80;;;;;;5032122;28;20041;-78
2022/06/10 11:48:26;;;;;;;5.55;2.60;;;819.30;1228.80;;;;;;5012953;28;20072;-76
2022/06/10 11:51:20;;;;;;;8.55;2.50;;;819.60;1254.40;;;;;;5023450;28;20107;-78
2022/06/10 11:54:07;;;;;;;5.93;2.92;;;819.80;1254.40;;;;;;4973215;28;20086;-78
2022/06/10 12:00:09;;;;;;;9.15;2.78;;;820.10;1254.40;;;;;;4968159;28;20094;-77
2022/06/10 12:02:38;;;;;;;5.10;2.28;;;844.90;1305.60;;;;;;4973051;28;20123;-79
2022/06/10 12:05:16;;;;;;;5.57;2.65;;;844.80;1228.80;;;;;;4959009;28;20561;-75
2022/06/10 12:07:52;;;;;;;5.20;2.20;;;845.00;1228.80;;;;;;4972719;28;20085;-79
2022/06/10 12:10:20;;;;;;;;;;;844.80;1228.80;;;;;;4973181;28;20428;-79
2022/06/10 12:12:47;;;;;;;5.57;2.00;;;820.00;1203.20;;;;;;4956352;28;20435;-79
2022/06/10 12:15:22;;;;;;;8.48;2.67;;;820.10;1203.20;;;;;;4942850;28;20067;-79
2022/06/10 12:17:51;;;;;;;8.27;2.55;;;844.90;1228.80;;;;;;4947466;29;20039;-78
2022/06/10 12:20:41;;;;;;;7.60;2.70;;;844.90;1254.40;;;;;;5035209;28;20066;-77
2022/06/10 12:23:28;;;;;;;9.40;3.00;;;845.00;1228.80;;;;;;5071228;28;20043;-80
2022/06/10 12:26:02;;;;;;;7.75;2.35;;;845.00;1152.00;;;;;;5048650;28;20109;-81
2022/06/10 12:28:33;;;;;;;9.68;2.70;;;845.20;1152.00;;;;;;5063941;28;20056;-78
2022/06/10 12:31:23;;;;;;;8.70;2.25;;;845.10;1203.20;;;;;;5087786;28;20438;-78
2022/06/10 12:34:09;;;;;;;5.25;2.00;;;845.00;1177.60;;;;;;5098371;28;20020;-79
2022/06/10 12:36:49;;;;;;;4.55;2.10;;;845.20;1203.20;;;;;;5102057;28;20020;-79
2022/06/10 12:39:50;;;;;;;6.70;2.00;;;845.40;1203.20;;;;;;5095030;28;20020;-78
2022/06/10 12:42:23;;;;;;;5.80;2.30;;;845.40;1177.60;;;;;;5093001;28;20039;-78
2022/06/10 12:44:56;;;;;;;13.43;3.20;;;845.20;1177.60;;;;;;5101302;28;20077;-78
2022/06/10 12:47:29;;;;;;;7.88;2.40;;;845.40;1177.60;;;;;;5101315;28;20027;-77
2022/06/10 12:50:00;;;;;;;3.63;2.08;;;845.40;1177.60;;;;;;5111155;28;20096;-78
2022/06/10 12:52:58;;;;;;;6.15;1.95;;;845.50;1126.40;;;;;;5111480;28;20051;-77